Time;durP1;ratioP1;P1;durP2;ratioP2;P2;SDS_P1;SDS_P2;PMS_P1;PMS_P2;Temp;Humidity;BMP_temperature;BMP_pressure;BME280_temperature;BME280_humidity;BME280_pressure;Samples;Min_cycle;Max_cycle;Signal;HPM_P1;HPM_P2
2022/03/05 00:03:01;;;;;;;13.20;12.00;;;;;;;20.85;24.38;94769.78;6184779;28;103001;-55
2022/03/05 00:06:03;;;;;;;12.77;11.70;;;;;;;20.85;24.59;94772.44;6183939;28;103026;-55
2022/03/05 00:09:05;;;;;;;12.83;11.73;;;;;;;20.86;24.44;94769.50;6180217;28;103141;-55
2022/03/05 00:12:07;;;;;;;11.80;10.70;;;;;;;20.84;24.46;94766.34;6154079;28;103253;-56
2022/03/05 00:15:09;;;;;;;11.70;10.70;;;;;;;20.84;24.52;94763.69;6159698;28;104180;-55
2022/03/05 00:18:11;;;;;;;12.37;11.30;;;;;;;20.83;24.43;94769.31;6159654;28;103096;-55
2022/03/05 00:21:13;;;;;;;11.40;10.40;;;;;;;20.80;24.31;94759.25;6154488;28;103034;-55
2022/03/05 00:24:14;;;;;;;11.93;10.90;;;;;;;20.84;24.35;94765.56;6158429;28;103005;-55
2022/03/05 00:27:17;;;;;;;11.80;10.70;;;;;;;20.82;24.44;94770.34;6159252;28;103289;-55
2022/03/05 00:30:18;;;;;;;10.60;9.70;;;;;;;20.81;24.38;94771.44;6159402;28;103978;-55
2022/03/05 00:33:21;;;;;;;11.57;10.57;;;;;;;20.81;24.51;94776.75;6153334;28;103990;-55
2022/03/05 00:36:22;;;;;;;11.40;10.40;;;;;;;20.82;24.37;94767.69;6158564;28;104099;-55
2022/03/05 00:39:24;;;;;;;11.70;10.60;;;;;;;20.83;24.44;94769.31;6158793;28;103143;-54
2022/03/05 00:42:26;;;;;;;11.80;10.80;;;;;;;20.81;24.34;94776.75;6159651;28;104436;-55
2022/03/05 00:45:28;;;;;;;11.50;10.50;;;;;;;20.81;24.46;94774.88;6154580;28;103947;-55
2022/03/05 00:48:30;;;;;;;10.80;9.90;;;;;;;20.79;24.37;94763.78;6142858;28;102895;-56
2022/03/05 00:51:32;;;;;;;11.20;10.27;;;;;;;20.80;24.47;94764.56;6160222;28;103576;-54
2022/03/05 00:54:34;;;;;;;10.77;9.87;;;;;;;20.81;24.43;94766.13;6155034;28;103117;-55
2022/03/05 00:57:37;;;;;;;10.87;9.93;;;;;;;20.80;24.21;94770.66;6160967;28;104410;-55
2022/03/05 01:00:38;;;;;;;10.60;9.70;;;;;;;20.79;24.32;94771.75;6159644;28;103041;-55
2022/03/05 01:03:41;;;;;;;11.43;10.43;;;;;;;20.80;24.45;94764.56;6159360;28;103057;-54
2022/03/05 01:06:43;;;;;;;10.53;9.63;;;;;;;20.78;24.19;94764.06;6135846;28;104725;-59
2022/03/05 01:09:44;;;;;;;10.53;9.73;;;;;;;20.80;24.45;94761.91;6168331;28;103983;-55
2022/03/05 01:12:46;;;;;;;11.10;10.20;;;;;;;20.79;24.14;94758.47;6183777;28;104398;-55
2022/03/05 01:15:48;;;;;;;10.70;9.77;;;;;;;20.79;24.31;94750.50;6182783;28;103023;-55
2022/03/05 01:18:50;;;;;;;9.80;9.00;;;;;;;20.76;24.58;94753.75;6178089;28;103065;-54
2022/03/05 01:21:52;;;;;;;10.10;9.20;;;;;;;20.78;24.33;94756.91;6182885;28;103683;-55
2022/03/05 01:24:54;;;;;;;10.63;9.70;;;;;;;20.79;24.18;94747.06;6183040;28;103995;-55
2022/03/05 01:27:56;;;;;;;9.60;8.80;;;;;;;20.78;24.33;94751.59;6177648;28;103007;-55
2022/03/05 01:30:57;;;;;;;10.73;9.80;;;;;;;20.79;24.54;94752.38;6182571;28;103742;-55
2022/03/05 01:33:59;;;;;;;10.73;9.83;;;;;;;20.78;24.22;94751.59;6182928;28;104013;-55
2022/03/05 01:37:01;;;;;;;10.67;9.70;;;;;;;20.78;24.38;94750.81;6181809;28;102906;-55
2022/03/05 01:40:04;;;;;;;10.80;9.80;;;;;;;20.77;24.33;94757.97;6176089;28;103010;-55
2022/03/05 01:43:07;;;;;;;10.50;9.60;;;;;;;20.78;24.47;94750.81;6182495;28;103012;-55
2022/03/05 01:46:08;;;;;;;10.80;9.80;;;;;;;20.76;24.49;94752.97;6182407;28;103020;-55
2022/03/05 01:49:12;;;;;;;10.60;9.70;;;;;;;20.77;24.44;94757.19;6177516;28;102744;-55
2022/03/05 01:52:14;;;;;;;10.30;9.50;;;;;;;20.77;24.35;94755.31;6181582;28;103159;-55
2022/03/05 01:55:15;;;;;;;11.03;10.03;;;;;;;20.77;24.15;94750.03;6181989;28;102943;-54
2022/03/05 01:58:17;;;;;;;9.97;9.07;;;;;;;20.78;24.37;94754.25;6182354;28;104185;-54
2022/03/05 02:01:24;;;;;;;9.47;8.67;;;;;;;20.77;24.27;94751.88;6177011;28;104150;-55
2022/03/05 02:04:26;;;;;;;10.10;9.30;;;;;;;20.78;24.19;94753.47;6182030;28;103106;-55
2022/03/05 02:07:29;;;;;;;10.63;9.73;;;;;;;20.76;24.49;94752.97;6181264;28;103263;-55
2022/03/05 02:10:30;;;;;;;10.60;9.60;;;;;;;20.75;24.46;94751.41;6166757;28;102704;-54
2022/03/05 02:13:32;;;;;;;10.50;9.70;;;;;;;20.75;24.07;94738.91;6151901;28;103296;-55
2022/03/05 02:16:34;;;;;;;10.60;9.60;;;;;;;20.76;24.37;94748.44;6157683;28;103435;-55
2022/03/05 02:19:36;;;;;;;10.13;9.27;;;;;;;20.77;24.37;94741.28;6158049;28;104334;-55
2022/03/05 02:22:40;;;;;;;10.53;9.60;;;;;;;20.75;24.25;94741.56;6151693;28;103880;-55
2022/03/05 02:25:52;;;;;;;11.17;10.13;;;;;;;20.75;24.38;94740.78;6157095;28;103013;-55
2022/03/05 02:28:54;;;;;;;10.40;9.40;;;;;;;20.73;24.36;94736.56;6157504;28;103392;-55
2022/03/05 02:31:56;;;;;;;9.80;9.00;;;;;;;20.75;24.23;94751.41;6156634;28;103242;-55
2022/03/05 02:34:58;;;;;;;10.87;9.80;;;;;;;20.73;24.33;94755.13;6151152;28;102946;-54
2022/03/05 02:38:00;;;;;;;10.10;9.30;;;;;;;20.72;24.44;94742.94;6156429;28;103241;-55
2022/03/05 02:41:01;;;;;;;10.50;9.60;;;;;;;20.75;24.22;94748.75;6157561;28;103347;-55
2022/03/05 02:44:04;;;;;;;9.20;8.50;;;;;;;20.73;24.38;94749.84;6155497;28;103181;-55
2022/03/05 02:47:06;;;;;;;9.80;9.03;;;;;;;20.73;24.56;94749.84;6152997;28;103064;-55
2022/03/05 02:50:08;;;;;;;10.23;9.33;;;;;;;20.76;24.39;94752.97;6157587;28;102914;-55
2022/03/05 02:53:10;;;;;;;10.77;9.80;;;;;;;20.72;24.28;94756.22;6160664;28;103303;-55
2022/03/05 02:56:12;;;;;;;9.17;8.33;;;;;;;20.73;24.33;94757.00;6155582;28;103278;-55
2022/03/05 02:59:14;;;;;;;10.17;9.23;;;;;;;20.73;24.60;94749.06;6160947;28;103010;-55
2022/03/05 03:02:17;;;;;;;10.10;9.10;;;;;;;20.72;24.61;94748.25;6161093;28;102931;-55
2022/03/05 03:05:19;;;;;;;10.50;9.60;;;;;;;20.72;24.25;94748.25;6160653;28;104010;-55
2022/03/05 03:08:21;;;;;;;11.30;10.40;;;;;;;20.73;24.39;94755.13;6154392;28;104167;-55
2022/03/05 03:11:23;;;;;;;11.40;10.30;;;;;;;20.73;24.46;94757.00;6183666;28;104084;-55
2022/03/05 03:14:25;;;;;;;10.83;9.73;;;;;;;20.72;24.32;94755.44;6184830;28;103248;-55
2022/03/05 03:17:27;;;;;;;11.60;10.60;;;;;;;20.73;24.42;94762.31;6179990;28;103294;-54
2022/03/05 03:20:28;;;;;;;11.30;10.40;;;;;;;20.72;24.46;94761.53;6184326;28;103685;-54
2022/03/05 03:23:30;;;;;;;11.73;10.73;;;;;;;20.71;24.31;94759.97;6184791;28;103044;-54
2022/03/05 03:26:32;;;;;;;12.27;11.27;;;;;;;20.71;24.41;94762.63;6184954;28;104062;-54
2022/03/05 03:29:34;;;;;;;11.37;10.37;;;;;;;20.71;24.21;94754.66;6179749;28;104182;-54
2022/03/05 03:32:37;;;;;;;12.03;11.00;;;;;;;20.73;24.32;94752.50;6184311;28;103178;-55
2022/03/05 03:35:39;;;;;;;11.37;10.37;;;;;;;20.70;24.40;94761.06;6184421;28;103420;-54
2022/03/05 03:38:41;;;;;;;11.90;10.80;;;;;;;20.71;24.34;94757.31;6184231;28;103956;-54
2022/03/05 03:41:43;;;;;;;11.60;10.60;;;;;;;20.73;24.47;94760.44;6179439;28;104718;-56
2022/03/05 03:44:44;;;;;;;11.93;10.90;;;;;;;20.72;24.28;94758.88;6184697;28;103810;-54
2022/03/05 03:47:50;;;;;;;11.97;10.87;;;;;;;20.70;24.47;94755.75;6184757;28;103122;-55
2022/03/05 03:50:51;;;;;;;12.13;11.03;;;;;;;20.70;24.47;94763.72;6178567;28;103214;-55
2022/03/05 03:53:53;;;;;;;12.90;11.80;;;;;;;20.70;24.40;94761.06;6184066;28;103341;-55
2022/03/05 03:56:55;;;;;;;13.07;12.00;;;;;;;20.70;24.22;94771.66;6184076;28;103643;-55
2022/03/05 03:59:57;;;;;;;11.80;10.80;;;;;;;20.69;24.22;94767.44;6185041;28;103792;-55
2022/03/05 04:02:58;;;;;;;13.20;12.00;;;;;;;20.69;24.42;94767.44;6177761;28;102998;-54
2022/03/05 04:06:00;;;;;;;12.57;11.40;;;;;;;20.69;24.47;94770.09;6183899;28;103517;-55
2022/03/05 04:09:02;;;;;;;16.57;12.73;;;;;;;20.70;24.47;94765.56;6180203;28;103163;-55
2022/03/05 04:12:04;;;;;;;13.00;11.83;;;;;;;20.68;24.27;94768.53;6159101;28;103097;-55
2022/03/05 04:15:07;;;;;;;13.97;12.67;;;;;;;20.67;24.14;94774.13;6154358;28;103303;-55
2022/03/05 04:18:08;;;;;;;13.13;11.93;;;;;;;20.69;24.56;94764.78;6159266;28;103453;-55
2022/03/05 04:21:10;;;;;;;14.00;12.80;;;;;;;20.68;24.41;94776.50;6158544;28;103178;-55
2022/03/05 04:24:12;;;;;;;13.03;11.93;;;;;;;20.68;24.41;94773.84;6153847;28;103042;-55
2022/03/05 04:27:14;;;;;;;13.63;12.47;;;;;;;20.67;24.16;94777.56;6158471;28;103233;-55
2022/03/05 04:30:15;;;;;;;13.27;12.20;;;;;;;20.65;24.41;94785.03;6159475;28;103495;-55
2022/03/05 04:33:17;;;;;;;13.70;12.50;;;;;;;20.65;24.15;94774.41;6141541;28;103996;-55
2022/03/05 04:36:19;;;;;;;13.57;12.33;;;;;;;20.67;24.31;94784.75;6153315;28;103371;-55
2022/03/05 04:39:21;;;;;;;14.30;13.10;;;;;;;20.66;24.28;94783.19;6158564;28;104180;-55
2022/03/05 04:42:23;;;;;;;13.67;12.47;;;;;;;20.67;24.42;94780.22;6158640;28;103492;-55
2022/03/05 04:45:26;;;;;;;13.63;12.53;;;;;;;20.66;24.22;94781.31;6154367;28;103949;-54
2022/03/05 04:48:27;;;;;;;13.93;12.70;;;;;;;20.64;24.50;94774.69;6140541;28;103401;-55
2022/03/05 04:51:29;;;;;;;13.30;12.20;;;;;;;20.65;24.46;94782.38;6158602;28;103071;-55
2022/03/05 04:54:33;;;;;;;13.80;12.60;;;;;;;20.65;24.41;94782.38;6158835;28;102986;-54
2022/03/05 04:57:34;;;;;;;14.10;12.90;;;;;;;20.65;24.33;94784.25;6152849;28;103958;-54
2022/03/05 05:00:36;;;;;;;14.00;12.80;;;;;;;20.63;24.44;94792.50;6159160;28;104279;-55
2022/03/05 05:03:38;;;;;;;14.13;12.93;;;;;;;20.66;24.14;94783.19;6158692;28;103466;-55
2022/03/05 05:06:40;;;;;;;14.17;13.00;;;;;;;20.62;24.33;94790.94;6158488;28;104003;-55
2022/03/05 05:09:42;;;;;;;13.73;12.53;;;;;;;20.63;24.32;94794.38;6162553;28;104075;-54
2022/03/05 05:12:44;;;;;;;14.57;13.20;;;;;;;20.66;24.36;94801.75;6182684;28;104433;-55
2022/03/05 05:15:46;;;;;;;14.77;13.37;;;;;;;20.63;24.30;94800.47;6183092;28;103249;-54
2022/03/05 05:22:09;;;;;;;14.20;12.90;;;;;;;20.63;24.16;94797.03;6182883;28;103086;-55
2022/03/05 05:25:10;;;;;;;14.30;13.00;;;;;;;20.63;23.98;94813.72;6183252;28;103421;-55
2022/03/05 05:28:12;;;;;;;14.57;13.27;;;;;;;20.63;24.32;94808.44;6182342;28;103019;-54
2022/03/05 05:31:19;;;;;;;15.13;13.83;;;;;;;20.65;24.26;94816.09;6178222;28;103250;-54
2022/03/05 05:34:22;;;;;;;15.33;14.03;;;;;;;20.62;24.32;94820.13;6182358;28;103239;-54
2022/03/05 05:37:24;;;;;;;15.57;14.10;;;;;;;20.63;24.26;94837.63;6182880;28;104058;-54
2022/03/05 05:40:26;;;;;;;15.33;13.97;;;;;;;20.65;24.32;94837.31;6177355;28;104124;-54
2022/03/05 05:43:27;;;;;;;15.33;13.97;;;;;;;20.62;24.28;94838.69;6182122;28;102995;-55
2022/03/05 05:46:29;;;;;;;15.60;14.20;;;;;;;20.65;24.27;94848.72;6182607;28;103133;-54
2022/03/05 05:49:31;;;;;;;15.23;13.83;;;;;;;20.64;24.33;94843.72;6164666;28;102818;-55
2022/03/05 05:52:33;;;;;;;14.77;13.47;;;;;;;20.65;24.34;94845.28;6177505;28;104003;-54
2022/03/05 05:55:35;;;;;;;15.80;14.50;;;;;;;20.64;24.24;94844.50;6182277;28;103621;-54
2022/03/05 05:58:36;;;;;;;15.10;13.70;;;;;;;20.66;24.32;94845.03;6182952;28;103920;-54
2022/03/05 06:01:39;;;;;;;15.77;14.40;;;;;;;20.65;24.28;94843.41;6182772;28;103002;-54
2022/03/05 06:04:40;;;;;;;16.50;15.10;;;;;;;20.67;24.31;94849.25;6177374;28;104000;-54
2022/03/05 06:07:42;;;;;;;15.90;14.40;;;;;;;20.67;24.16;94861.72;6182388;28;104050;-54
2022/03/05 06:10:44;;;;;;;15.53;14.13;;;;;;;20.69;24.15;94862.22;6164145;28;103285;-56
2022/03/05 06:13:46;;;;;;;17.00;15.40;;;;;;;20.67;24.27;94867.03;6152961;28;103275;-54
2022/03/05 06:16:48;;;;;;;17.23;15.63;;;;;;;20.69;24.42;94872.84;6157914;28;103021;-54
2022/03/05 06:19:50;;;;;;;16.47;15.07;;;;;;;20.67;24.03;94878.44;6157460;28;103939;-54
2022/03/05 06:22:51;;;;;;;16.87;15.30;;;;;;;20.68;24.41;94879.22;6157531;28;103743;-54
2022/03/05 06:25:53;;;;;;;15.77;14.37;;;;;;;20.70;24.23;94882.38;6154762;28;106854;-54
2022/03/05 06:28:55;;;;;;;17.10;15.50;;;;;;;20.71;24.17;94879.44;6161656;28;103259;-54
2022/03/05 06:31:58;;;;;;;16.40;14.90;;;;;;;20.68;24.07;94880.03;6161258;28;103577;-54
2022/03/05 06:35:00;;;;;;;16.20;14.67;;;;;;;20.72;24.29;94883.66;6161278;28;103000;-54
2022/03/05 06:38:02;;;;;;;16.23;14.73;;;;;;;20.73;24.06;94887.09;6156450;28;103054;-54
2022/03/05 06:41:04;;;;;;;16.10;14.70;;;;;;;20.74;24.24;94883.34;6160135;28;103032;-55
2022/03/05 06:44:07;;;;;;;16.23;14.83;;;;;;;20.78;24.10;94889.66;6161902;28;102986;-55
2022/03/05 06:47:09;;;;;;;16.93;15.40;;;;;;;20.77;24.05;94881.97;6156285;28;104119;-54
2022/03/05 06:50:12;;;;;;;15.90;14.50;;;;;;;20.79;24.09;94885.13;6161025;28;103169;-55
2022/03/05 06:53:13;;;;;;;15.97;14.67;;;;;;;20.78;24.11;94892.31;6161415;28;103043;-55
2022/03/05 06:56:15;;;;;;;16.07;14.67;;;;;;;20.83;24.24;94891.44;6161092;28;103192;-55
2022/03/05 06:59:17;;;;;;;16.20;14.80;;;;;;;20.83;24.15;94886.91;6155783;28;103230;-55
2022/03/05 07:02:19;;;;;;;17.70;16.10;;;;;;;20.86;24.20;94888.97;6161116;28;104150;-55
2022/03/05 07:05:23;;;;;;;15.80;14.33;;;;;;;20.87;24.28;94887.09;6161043;28;104012;-55
2022/03/05 07:08:26;;;;;;;16.50;15.00;;;;;;;20.87;24.41;94885.25;6156390;28;103534;-55
2022/03/05 07:11:28;;;;;;;16.37;14.97;;;;;;;20.88;24.36;94883.38;6182582;28;103288;-55
2022/03/05 07:14:30;;;;;;;16.37;14.87;;;;;;;20.89;24.34;94882.28;6185834;28;103985;-55
2022/03/05 07:17:32;;;;;;;16.23;14.83;;;;;;;20.89;24.32;94879.63;6185563;28;103052;-55
2022/03/05 07:20:33;;;;;;;17.13;15.53;;;;;;;20.91;24.16;94880.91;6179538;28;102860;-55
2022/03/05 07:23:35;;;;;;;16.80;15.40;;;;;;;20.94;24.16;94885.63;6185101;28;103246;-55
2022/03/05 07:26:37;;;;;;;17.20;15.67;;;;;;;20.96;24.33;94880.78;6185585;28;103611;-55
2022/03/05 07:29:39;;;;;;;16.70;15.30;;;;;;;20.95;24.30;94881.88;6185633;28;104066;-54
2022/03/05 07:32:41;;;;;;;17.17;15.67;;;;;;;20.93;24.15;94875.28;6178945;28;103398;-55
2022/03/05 07:35:43;;;;;;;17.17;15.67;;;;;;;20.97;24.27;94876.28;6184458;28;103030;-54
2022/03/05 07:38:45;;;;;;;16.70;15.30;;;;;;;21.00;24.25;94875.69;6183800;28;103140;-54
2022/03/05 07:41:48;;;;;;;17.97;16.37;;;;;;;20.99;23.93;94871.44;6179108;28;102838;-54
2022/03/05 07:44:50;;;;;;;16.90;15.37;;;;;;;21.04;24.25;94866.06;6185217;28;103986;-54
2022/03/05 07:47:51;;;;;;;16.70;15.20;;;;;;;21.03;24.24;94873.22;6184720;28;103589;-55
2022/03/05 07:50:54;;;;;;;17.70;16.00;;;;;;;21.01;24.19;94862.13;6184648;28;104123;-55
2022/03/05 07:53:55;;;;;;;17.60;16.00;;;;;;;21.01;24.39;94871.97;6178729;28;103049;-55
2022/03/05 07:56:57;;;;;;;18.70;16.80;;;;;;;21.01;24.14;94874.63;6184899;28;103165;-54
2022/03/05 07:59:59;;;;;;;16.57;15.27;;;;;;;21.00;24.31;94865.06;6184654;28;103001;-54
2022/03/05 08:03:21;;;;;;;16.93;15.43;;;;;;;21.02;24.19;94866.34;6184692;28;105475;-55
2022/03/05 08:06:23;;;;;;;17.07;15.60;;;;;;;21.04;24.21;94863.41;6180236;28;104084;-55
2022/03/05 08:09:24;;;;;;;17.07;15.47;;;;;;;21.03;24.13;94869.78;6184467;28;103172;-55
2022/03/05 08:12:27;;;;;;;17.57;15.97;;;;;;;21.02;24.37;94866.34;6183908;28;103426;-60
2022/03/05 08:15:28;;;;;;;16.57;15.13;;;;;;;21.01;24.21;94874.63;6178537;28;102998;-55
2022/03/05 08:18:30;;;;;;;16.37;15.00;;;;;;;21.01;24.28;94875.41;6184171;28;103102;-54
2022/03/05 08:21:33;;;;;;;16.53;15.13;;;;;;;21.00;24.19;94879.16;6183666;28;103329;-54
2022/03/05 08:24:34;;;;;;;16.53;15.17;;;;;;;21.00;24.18;94875.69;6184536;28;104202;-55
2022/03/05 08:27:36;;;;;;;17.43;15.93;;;;;;;20.98;24.09;94878.63;6178652;28;103020;-55
2022/03/05 08:30:40;;;;;;;16.80;15.40;;;;;;;20.99;24.37;94879.41;6184005;28;103312;-55
2022/03/05 08:33:42;;;;;;;16.17;14.80;;;;;;;20.99;24.31;94874.09;6183983;28;103327;-55
2022/03/05 08:36:44;;;;;;;17.50;15.93;;;;;;;20.96;24.38;94875.47;6179571;28;104415;-55
2022/03/05 08:39:45;;;;;;;16.37;14.87;;;;;;;20.96;24.50;94877.34;6183267;28;103829;-55
2022/03/05 08:42:50;;;;;;;16.70;15.20;;;;;;;20.96;24.50;94872.81;6182470;28;103217;-55
2022/03/05 08:45:52;;;;;;;16.40;15.00;;;;;;;20.97;24.44;94884.25;6183824;28;104360;-55
2022/03/05 08:48:54;;;;;;;16.80;15.20;;;;;;;20.95;24.36;94883.75;6177438;28;103231;-54
2022/03/05 08:51:56;;;;;;;17.07;15.47;;;;;;;20.98;24.30;94883.16;6165667;28;103765;-55
2022/03/05 08:54:58;;;;;;;16.57;15.07;;;;;;;20.96;24.43;94882.66;6165677;28;104030;-55
2022/03/05 08:58:00;;;;;;;16.30;14.90;;;;;;;20.96;24.29;94885.31;6165805;28;103080;-55
2022/03/05 09:01:02;;;;;;;14.93;13.63;;;;;;;20.98;24.50;94878.63;6177757;28;103164;-55
2022/03/05 09:04:05;;;;;;;16.30;14.90;;;;;;;20.98;24.57;94883.94;6184309;28;104401;-54
2022/03/05 09:07:06;;;;;;;16.07;14.57;;;;;;;20.97;24.57;94881.59;6183457;28;104165;-55
2022/03/05 09:10:09;;;;;;;15.83;14.43;;;;;;;20.99;24.47;94879.41;6166130;28;104086;-55
2022/03/05 09:13:11;;;;;;;16.47;15.00;;;;;;;20.98;24.40;94878.63;6158126;28;103956;-55
2022/03/05 09:16:13;;;;;;;15.60;14.30;;;;;;;20.97;24.35;94876.28;6158549;28;103442;-54
2022/03/05 09:19:15;;;;;;;15.80;14.50;;;;;;;20.98;24.41;94878.63;6158618;28;104222;-54
2022/03/05 09:22:17;;;;;;;15.07;13.67;;;;;;;20.99;24.18;94876.75;6152532;28;104165;-54
2022/03/05 09:25:19;;;;;;;15.40;14.00;;;;;;;21.00;24.56;94875.69;6158110;28;102747;-55
2022/03/05 09:28:21;;;;;;;14.07;12.80;;;;;;;20.99;24.39;94866.13;6158486;28;103305;-54
2022/03/05 09:31:22;;;;;;;14.93;13.70;;;;;;;20.99;24.63;94861.59;6158327;28;104212;-54
2022/03/05 09:34:24;;;;;;;14.73;13.53;;;;;;;20.99;24.50;94864.25;6153302;28;102902;-57
2022/03/05 09:37:28;;;;;;;13.67;12.57;;;;;;;21.00;24.58;94876.50;6158571;28;103520;-55
2022/03/05 09:40:30;;;;;;;14.50;13.30;;;;;;;21.00;24.63;94878.34;6158618;28;104135;-53
2022/03/05 09:43:33;;;;;;;14.77;13.57;;;;;;;21.00;24.40;94865.06;6151721;28;102726;-55
2022/03/05 09:46:35;;;;;;;14.10;12.97;;;;;;;21.04;24.41;94860.75;6158150;28;103591;-55
2022/03/05 09:49:38;;;;;;;14.30;13.10;;;;;;;21.05;24.53;94862.31;6158519;28;103982;-55
2022/03/05 09:52:41;;;;;;;14.60;13.30;;;;;;;21.05;24.44;94854.34;6157478;28;102990;-55
2022/03/05 09:55:42;;;;;;;14.83;13.53;;;;;;;21.02;24.52;94862.91;6153914;28;105954;-54
2022/03/05 09:59:05;;;;;;;14.50;13.27;;;;;;;21.01;24.57;94871.97;6157815;28;105013;-54
2022/03/05 10:02:07;;;;;;;13.50;12.30;;;;;;;21.01;24.73;94864.78;6161974;28;103401;-54
2022/03/05 10:05:26;;;;;;;13.90;12.70;;;;;;;21.00;24.70;94859.75;6156493;28;103078;-55
2022/03/05 10:08:28;;;;;;;13.83;12.70;;;;;;;21.00;24.63;94867.72;6162091;28;103484;-55
2022/03/05 10:11:40;;;;;;;13.17;12.07;;;;;;;20.99;24.62;94868.78;6185652;28;102897;-55
2022/03/05 10:14:41;;;;;;;12.37;11.37;;;;;;;20.96;24.77;94859.53;6184791;28;103402;-56
2022/03/05 10:18:00;;;;;;;12.33;11.33;;;;;;;20.97;24.77;94868.31;6181561;28;103089;-56
2022/03/05 10:21:07;;;;;;;13.10;12.00;;;;;;;20.98;24.64;94867.22;6186552;28;103128;-56
2022/03/05 10:24:10;;;;;;;13.50;12.40;;;;;;;20.97;24.67;94855.03;6186311;28;103038;-55
2022/03/05 10:27:30;;;;;;;13.17;12.07;;;;;;;20.99;24.63;94858.16;6180393;28;103124;-55
2022/03/05 10:30:35;;;;;;;13.30;12.20;;;;;;;20.99;24.73;94858.16;6186112;28;103013;-55
2022/03/05 10:33:40;;;;;;;12.87;11.87;;;;;;;20.98;24.64;94868.00;6185159;28;103000;-55
2022/03/05 10:36:57;;;;;;;13.33;12.23;;;;;;;20.98;24.62;94853.94;6186383;28;104008;-55
2022/03/05 10:39:59;;;;;;;12.50;11.50;;;;;;;20.98;24.63;94852.06;6181689;28;103638;-55
2022/03/05 10:43:04;;;;;;;12.53;11.53;;;;;;;20.98;24.68;94846.75;6185998;28;103911;-55
2022/03/05 10:46:06;;;;;;;13.30;12.20;;;;;;;20.96;24.72;94843.63;6185108;28;103404;-56
2022/03/05 10:49:20;;;;;;;12.33;11.33;;;;;;;20.98;24.83;94844.09;6180627;28;104054;-55
2022/03/05 10:52:22;;;;;;;13.13;12.13;;;;;;;20.97;24.73;94844.41;6185184;28;102998;-55
2022/03/05 10:55:26;;;;;;;12.80;11.60;;;;;;;20.96;24.73;94842.81;6185927;28;103018;-55
2022/03/05 10:58:27;;;;;;;12.20;11.20;;;;;;;20.95;24.67;94838.59;6185913;28;103497;-55
2022/03/05 11:01:30;;;;;;;12.40;11.33;;;;;;;20.94;24.75;94835.16;6180699;28;104250;-55
2022/03/05 11:04:35;;;;;;;12.67;11.67;;;;;;;20.95;24.83;94835.94;6185253;28;103627;-55
2022/03/05 11:07:39;;;;;;;13.10;12.07;;;;;;;20.95;24.68;94827.97;6185561;28;104234;-56
2022/03/05 11:10:41;;;;;;;12.03;11.13;;;;;;;20.94;24.87;94832.50;6174435;28;103238;-55
2022/03/05 11:13:43;;;;;;;12.30;11.30;;;;;;;20.94;24.90;94823.75;6182135;28;102980;-55
2022/03/05 11:16:45;;;;;;;12.17;11.17;;;;;;;20.95;24.86;94822.66;6184910;28;105453;-55
2022/03/05 11:19:49;;;;;;;11.40;10.50;;;;;;;20.93;24.86;94815.00;6184964;28;103080;-55
2022/03/05 11:22:52;;;;;;;13.00;11.90;;;;;;;20.95;24.92;94809.38;6179203;28;103467;-55
2022/03/05 11:25:54;;;;;;;12.23;11.23;;;;;;;20.91;24.91;94806.56;6185000;28;103019;-55
2022/03/05 11:28:57;;;;;;;12.10;11.10;;;;;;;20.92;24.76;94810.78;6184525;28;103016;-55
2022/03/05 11:32:13;;;;;;;11.63;10.63;;;;;;;20.92;24.86;94799.38;6184654;28;102855;-55
2022/03/05 11:35:20;;;;;;;11.40;10.50;;;;;;;20.91;24.95;94800.44;6179055;28;104004;-55
2022/03/05 11:38:39;;;;;;;11.50;10.57;;;;;;;20.91;24.87;94795.13;6167555;28;103943;-56
2022/03/05 11:41:51;;;;;;;12.10;11.10;;;;;;;20.89;24.80;94789.34;6167202;28;103393;-56
2022/03/05 11:44:53;;;;;;;12.07;10.97;;;;;;;20.89;24.89;94784.03;6179042;28;103951;-56
2022/03/05 11:48:36;;;;;;;11.70;10.80;;;;;;;20.90;25.02;94780.28;6184054;28;103965;-56
2022/03/05 11:51:56;;;;;;;11.27;10.27;;;;;;;20.89;25.05;94776.84;6184396;28;103019;-56
2022/03/05 11:55:24;;;;;;;12.23;11.23;;;;;;;20.88;24.95;94772.63;6180416;28;104688;-57
2022/03/05 11:58:28;;;;;;;11.20;10.30;;;;;;;20.87;25.03;94764.97;6184582;28;103015;-56
2022/03/05 12:01:42;;;;;;;10.93;10.03;;;;;;;20.87;25.11;94765.75;6185067;28;104104;-56
2022/03/05 12:04:46;;;;;;;11.57;10.63;;;;;;;20.87;25.19;94764.97;6184326;28;103224;-57
2022/03/05 12:07:48;;;;;;;11.83;10.80;;;;;;;20.86;25.06;94769.50;6179543;28;103476;-55
2022/03/05 12:11:13;;;;;;;12.17;11.17;;;;;;;20.86;25.09;94766.03;6185042;28;104309;-56
2022/03/05 12:14:14;;;;;;;12.03;11.03;;;;;;;20.86;25.16;94760.75;6184290;28;103991;-57
2022/03/05 12:17:20;;;;;;;11.60;10.70;;;;;;;20.86;25.15;94758.09;6161134;28;103253;-56
2022/03/05 12:20:26;;;;;;;11.27;10.37;;;;;;;20.87;25.20;94754.34;6183283;28;103160;-57
2022/03/05 12:23:28;;;;;;;10.80;9.90;;;;;;;20.80;25.14;94759.25;6184012;28;103117;-56
2022/03/05 12:26:40;;;;;;;11.23;10.23;;;;;;;20.85;25.23;94761.81;6183955;28;102967;-57
2022/03/05 12:29:49;;;;;;;11.97;10.87;;;;;;;20.84;25.13;94761.03;6179233;28;104243;-56
2022/03/05 12:32:53;;;;;;;11.90;11.00;;;;;;;20.84;25.14;94766.34;6183375;28;103076;-56
2022/03/05 12:35:56;;;;;;;11.37;10.50;;;;;;;20.84;25.05;94770.88;6183651;28;103071;-56
2022/03/05 12:39:01;;;;;;;11.70;10.70;;;;;;;20.85;25.07;94767.13;6161356;28;103306;-56
2022/03/05 12:42:06;;;;;;;11.80;10.80;;;;;;;20.85;25.04;94761.81;6183707;28;102985;-56
2022/03/05 12:45:14;;;;;;;12.33;11.33;;;;;;;20.83;25.30;94759.47;6183669;28;103072;-57
2022/03/05 12:48:18;;;;;;;12.67;11.67;;;;;;;20.83;25.15;94759.47;6183704;28;104023;-56
2022/03/05 12:51:21;;;;;;;11.27;10.37;;;;;;;20.84;25.25;94749.63;6176885;28;104098;-56
2022/03/05 12:54:24;;;;;;;11.73;10.77;;;;;;;20.84;25.20;94753.06;6183813;28;104447;-56
2022/03/05 12:57:26;;;;;;;11.80;10.90;;;;;;;20.85;25.35;94764.47;6165457;28;104242;-56
2022/03/05 13:00:28;;;;;;;11.80;10.90;;;;;;;20.84;25.09;94760.25;6183205;28;103080;-57
2022/03/05 13:03:31;;;;;;;12.27;11.27;;;;;;;20.83;25.17;94759.47;6177718;28;103163;-57
2022/03/05 13:06:33;;;;;;;13.07;11.97;;;;;;;20.83;25.23;94758.69;6182843;28;104511;-57
2022/03/05 13:09:35;;;;;;;12.50;11.30;;;;;;;20.83;25.16;94758.69;6175277;28;103297;-56
2022/03/05 13:12:39;;;;;;;12.50;11.40;;;;;;;20.83;25.36;94754.16;6152927;28;103264;-56
2022/03/05 13:15:42;;;;;;;12.27;11.37;;;;;;;20.82;25.36;94749.91;6158604;28;102947;-55
2022/03/05 13:18:56;;;;;;;11.87;10.90;;;;;;;20.82;25.34;94746.47;6157768;28;103029;-56
2022/03/05 13:21:58;;;;;;;11.93;10.93;;;;;;;20.82;25.28;94752.56;6158058;28;103143;-57
2022/03/05 13:25:00;;;;;;;12.00;11.10;;;;;;;20.82;25.27;94751.78;6153044;28;104234;-57
2022/03/05 13:28:02;;;;;;;12.10;11.10;;;;;;;20.82;25.24;94749.13;6158269;28;103785;-57
2022/03/05 13:31:05;;;;;;;11.50;10.60;;;;;;;20.82;25.35;94751.78;6158517;28;103440;-56
2022/03/05 13:34:07;;;;;;;11.83;10.93;;;;;;;20.81;25.17;94751.00;6152185;28;104648;-56
2022/03/05 13:37:10;;;;;;;11.27;10.37;;;;;;;20.80;25.14;94751.28;6157543;28;103720;-56
2022/03/05 13:40:15;;;;;;;10.80;10.00;;;;;;;20.80;25.31;94759.25;6158003;28;103521;-55
2022/03/05 13:43:22;;;;;;;11.77;10.87;;;;;;;20.76;25.28;94764.38;6158121;28;103176;-55
2022/03/05 13:46:33;;;;;;;11.27;10.37;;;;;;;20.80;25.35;94775.19;6152509;28;103476;-56
2022/03/05 13:49:36;;;;;;;12.03;11.13;;;;;;;20.79;25.30;94781.56;6157973;28;103221;-57
2022/03/05 13:52:58;;;;;;;11.07;10.17;;;;;;;20.79;25.42;94773.63;6157041;28;103098;-56
2022/03/05 13:56:02;;;;;;;11.50;10.63;;;;;;;20.77;25.26;94770.47;6153208;28;104497;-55
2022/03/05 13:59:04;;;;;;;11.10;10.27;;;;;;;20.78;25.34;94767.53;6157008;28;102925;-56
2022/03/05 14:02:06;;;;;;;11.70;10.70;;;;;;;20.77;25.49;94767.81;6158310;28;103740;-56